| time (UTC) | temp C | wind direction | speed KPH | gust KPH | rain 1hr cm | rain 24hr cm | rain mn cm | humidity % | barometer mb |
| 20260905104010 | 26 | 212 | 0.0 | 0.0 | 0.00 | 0.00 | 0.00 | 79 | 1014.3 |
| 20260905103514 | 26 | 212 | 0.0 | 0.0 | 0.00 | 0.00 | 0.00 | 79 | 1014.4 |
| 20260905103031 | 26 | 212 | 0.0 | 0.0 | 0.00 | 0.00 | 0.00 | 79 | 1014.4 |
| 20260905102513 | 26 | 212 | 0.0 | 0.0 | 0.00 | 0.00 | 0.00 | 78 | 1014.4 |
| 20260905102003 | 26 | 212 | 0.0 | 0.0 | 0.00 | 0.00 | 0.00 | 78 | 1014.4 |
| 20260905101505 | 26 | 212 | 0.0 | 1.6 | 0.00 | 0.00 | 0.00 | 78 | 1014.4 |
| 20260905101002 | 26 | 212 | 0.0 | 1.6 | 0.00 | 0.00 | 0.00 | 79 | 1014.3 |
| 20260905100504 | 26 | 212 | 0.0 | 0.0 | 0.00 | 0.00 | 0.00 | 79 | 1014.3 |
| 20260905100006 | 26 | 212 | 0.0 | 0.0 | 0.00 | 0.00 | 0.00 | 79 | 1014.2 |
| 20260905095503 | 26 | 212 | 0.0 | 0.0 | 0.00 | 0.00 | 0.00 | 80 | 1014.1 |
| 20260905095005 | 26 | 212 | 0.0 | 0.0 | 0.00 | 0.00 | 0.00 | 80 | 1014.1 |
| 20260905094504 | 26 | 212 | 0.0 | 0.0 | 0.00 | 0.00 | 0.00 | 80 | 1014.0 |
| 20260905094005 | 26 | 212 | 0.0 | 0.0 | 0.00 | 0.00 | 0.00 | 80 | 1014.1 |
| 20260905093504 | 26 | 212 | 0.0 | 0.0 | 0.00 | 0.00 | 0.00 | 79 | 1014.0 |
| 20260905093004 | 26 | 212 | 0.0 | 0.0 | 0.00 | 0.00 | 0.00 | 79 | 1014.1 |
| 20260905092503 | 26 | 212 | 0.0 | 0.0 | 0.00 | 0.00 | 0.00 | 79 | 1014.1 |
| 20260905092003 | 26 | 212 | 0.0 | 0.0 | 0.00 | 0.00 | 0.00 | 79 | 1014.0 |
| 20260905091505 | 26 | 212 | 0.0 | 0.0 | 0.00 | 0.00 | 0.00 | 79 | 1014.0 |
| 20260905091004 | 26 | 212 | 0.0 | 0.0 | 0.00 | 0.00 | 0.00 | 78 | 1013.9 |
| 20260905090503 | 26 | 212 | 0.0 | 0.0 | 0.00 | 0.00 | 0.00 | 78 | 1014.0 |
| 20260905090008 | 26 | 212 | 0.0 | 0.0 | 0.00 | 0.00 | 0.00 | 78 | 1013.9 |
| 20260905085506 | 27 | 212 | 0.0 | 0.0 | 0.00 | 0.00 | 0.00 | 78 | 1013.8 |
| 20260905085004 | 27 | 212 | 0.0 | 0.0 | 0.00 | 0.00 | 0.00 | 77 | 1013.7 |
| 20260905084504 | 27 | 212 | 0.0 | 0.0 | 0.00 | 0.00 | 0.00 | 77 | 1013.6 |
| 20260905084003 | 27 | 212 | 0.0 | 0.0 | 0.00 | 0.00 | 0.00 | 77 | 1013.6 |
| 20260905083507 | 27 | 212 | 0.0 | 0.0 | 0.00 | 0.00 | 0.00 | 77 | 1013.6 |
| 20260905083008 | 27 | 212 | 0.0 | 0.0 | 0.00 | 0.00 | 0.00 | 77 | 1013.6 |
| 20260905082503 | 27 | 212 | 0.0 | 3.2 | 0.00 | 0.00 | 0.00 | 76 | 1013.6 |
| 20260905082005 | 27 | 212 | 0.0 | 3.2 | 0.00 | 0.00 | 0.00 | 76 | 1013.6 |
| 20260905081505 | 27 | 212 | 0.0 | 0.0 | 0.00 | 0.00 | 0.00 | 76 | 1013.6 |
| 20260905081003 | 27 | 212 | 0.0 | 0.0 | 0.00 | 0.00 | 0.00 | 75 | 1013.6 |
| 20260905080508 | 27 | 212 | 0.0 | 0.0 | 0.00 | 0.00 | 0.00 | 75 | 1013.6 |
| 20260905080008 | 27 | 212 | 0.0 | 1.6 | 0.00 | 0.00 | 0.00 | 74 | 1013.6 |
| 20260905075504 | 27 | 212 | 0.0 | 1.6 | 0.00 | 0.00 | 0.00 | 74 | 1013.7 |
| 20260905075006 | 27 | 212 | 0.0 | 1.6 | 0.00 | 0.00 | 0.00 | 74 | 1013.6 |
| 20260905074507 | 27 | 212 | 0.0 | 1.6 | 0.00 | 0.00 | 0.00 | 74 | 1013.6 |
| 20260905074003 | 28 | 213 | 0.0 | 1.6 | 0.00 | 0.00 | 0.00 | 74 | 1013.7 |
| 20260905073504 | 28 | 215 | 0.0 | 3.2 | 0.00 | 0.00 | 0.00 | 74 | 1013.8 |
| 20260905073008 | 28 | 215 | 0.0 | 3.2 | 0.00 | 0.00 | 0.00 | 74 | 1013.8 |
| 20260905072504 | 28 | 215 | 0.0 | 0.0 | 0.00 | 0.00 | 0.00 | 74 | 1013.8 |
| 20260905072003 | 28 | 215 | 0.0 | 0.0 | 0.00 | 0.00 | 0.00 | 74 | 1013.9 |
| 20260905071507 | 28 | 215 | 0.0 | 0.0 | 0.00 | 0.00 | 0.00 | 74 | 1014.1 |
| 20260905071004 | 28 | 215 | 0.0 | 0.0 | 0.00 | 0.00 | 0.00 | 74 | 1014.2 |
| 20260905070507 | 28 | 215 | 0.0 | 0.0 | 0.00 | 0.00 | 0.00 | 73 | 1014.3 |
| 20260905070022 | 28 | 215 | 0.0 | 0.0 | 0.00 | 0.00 | 0.00 | 73 | 1014.3 |
| 20260905065503 | 28 | 215 | 0.0 | 0.0 | 0.00 | 0.00 | 0.00 | 73 | 1014.2 |
| 20260905065005 | 28 | 215 | 0.0 | 0.0 | 0.00 | 0.00 | 0.00 | 73 | 1014.3 |
| 20260905064525 | 28 | 215 | 0.0 | 0.0 | 0.00 | 0.00 | 0.00 | 72 | 1014.4 |
| 20260905064003 | 28 | 215 | 0.0 | 0.0 | 0.00 | 0.00 | 0.00 | 72 | 1014.4 |
| 20260905063504 | 28 | 215 | 0.0 | 0.0 | 0.00 | 0.00 | 0.00 | 72 | 1014.4 |
| 20260905063013 | 28 | 215 | 0.0 | 0.0 | 0.00 | 0.00 | 0.00 | 71 | 1014.4 |
| 20260905062506 | 28 | 215 | 0.0 | 0.0 | 0.00 | 0.00 | 0.00 | 71 | 1014.4 |
| 20260905062005 | 28 | 215 | 0.0 | 0.0 | 0.00 | 0.00 | 0.00 | 71 | 1014.3 |
| 20260905061506 | 28 | 215 | 0.0 | 0.0 | 0.00 | 0.00 | 0.00 | 71 | 1014.3 |
| 20260905061002 | 28 | 215 | 0.0 | 0.0 | 0.00 | 0.00 | 0.00 | 70 | 1014.2 |
| 20260905060504 | 28 | 215 | 0.0 | 0.0 | 0.00 | 0.00 | 0.00 | 70 | 1014.2 |
| 20260905060010 | 28 | 215 | 0.0 | 0.0 | 0.00 | 0.00 | 0.00 | 70 | 1014.2 |
| 20260905055503 | 28 | 215 | 0.0 | 0.0 | 0.00 | 0.00 | 0.00 | 69 | 1014.2 |
| 20260905055006 | 29 | 215 | 0.0 | 0.0 | 0.00 | 0.00 | 0.00 | 70 | 1014.1 |
| 20260905054510 | 29 | 215 | 0.0 | 0.0 | 0.00 | 0.00 | 0.00 | 69 | 1014.1 |
| 20260905054008 | 29 | 215 | 0.0 | 1.6 | 0.00 | 0.00 | 0.00 | 69 | 1014.1 |
| 20260905053504 | 29 | 215 | 0.0 | 3.2 | 0.00 | 0.00 | 0.00 | 69 | 1014.0 |
| 20260905053012 | 29 | 215 | 0.0 | 3.2 | 0.00 | 0.00 | 0.00 | 69 | 1013.9 |
| 20260905052505 | 29 | 215 | 0.0 | 1.6 | 0.00 | 0.00 | 0.00 | 68 | 1013.9 |
| 20260905052006 | 30 | 215 | 0.0 | 1.6 | 0.00 | 0.00 | 0.00 | 69 | 1013.8 |
| 20260905051518 | 30 | 215 | 0.0 | 1.6 | 0.00 | 0.00 | 0.00 | 68 | 1013.8 |
| 20260905051003 | 30 | 215 | 0.0 | 1.6 | 0.00 | 0.00 | 0.00 | 68 | 1013.8 |
| 20260905050503 | 30 | 215 | 0.0 | 1.6 | 0.00 | 0.00 | 0.00 | 68 | 1013.7 |
| 20260905050013 | 30 | 213 | 0.0 | 1.6 | 0.00 | 0.00 | 0.00 | 68 | 1013.7 |
| 20260905045503 | 30 | 213 | 0.0 | 1.6 | 0.00 | 0.00 | 0.00 | 67 | 1013.8 |
| 20260905045005 | 30 | 213 | 0.0 | 3.2 | 0.00 | 0.00 | 0.00 | 67 | 1013.9 |
| 20260905044510 | 30 | 211 | 0.0 | 3.2 | 0.00 | 0.00 | 0.00 | 66 | 1013.8 |
| 20260905044005 | 30 | 228 | 0.0 | 8.0 | 0.00 | 0.00 | 0.00 | 66 | 1013.9 |
| 20260905043503 | 30 | 213 | 0.0 | 8.0 | 0.00 | 0.00 | 0.00 | 66 | 1013.8 |
| 20260905043010 | 30 | 254 | 0.0 | 8.0 | 0.00 | 0.00 | 0.00 | 66 | 1013.8 |
| 20260905042505 | 30 | 207 | 0.0 | 3.2 | 0.00 | 0.00 | 0.00 | 66 | 1013.8 |
| 20260905042004 | 30 | 209 | 0.0 | 6.4 | 0.00 | 0.00 | 0.00 | 66 | 1013.8 |
| 20260905041514 | 30 | 214 | 0.0 | 8.0 | 0.00 | 0.00 | 0.00 | 66 | 1013.7 |
| 20260905041005 | 30 | 215 | 1.6 | 8.0 | 0.00 | 0.00 | 0.00 | 66 | 1013.7 |
| 20260905040503 | 30 | 194 | 0.0 | 4.8 | 0.00 | 0.00 | 0.00 | 67 | 1013.7 |
| 20260905040018 | 30 | 175 | 0.0 | 8.0 | 0.00 | 0.00 | 0.00 | 68 | 1013.7 |
| 20260905035504 | 30 | 174 | 0.0 | 8.0 | 0.00 | 0.00 | 0.00 | 68 | 1013.7 |
| 20260905035003 | 31 | 173 | 0.0 | 6.4 | 0.00 | 0.00 | 0.00 | 69 | 1013.8 |
| 20260905034523 | 31 | 167 | 0.0 | 6.4 | 0.00 | 0.00 | 0.00 | 68 | 1013.9 |
| 20260905034007 | 31 | 167 | 0.0 | 1.6 | 0.00 | 0.00 | 0.00 | 67 | 1013.9 |
| 20260905033504 | 31 | 167 | 0.0 | 3.2 | 0.00 | 0.00 | 0.00 | 66 | 1013.8 |
| 20260905033024 | 31 | 165 | 0.0 | 9.7 | 0.00 | 0.00 | 0.00 | 66 | 1013.8 |
| 20260905032508 | 31 | 164 | 0.0 | 9.7 | 0.00 | 0.00 | 0.00 | 65 | 1013.8 |
| 20260905032006 | 31 | 167 | 0.0 | 4.8 | 0.00 | 0.00 | 0.00 | 65 | 1013.7 |
| 20260905031510 | 31 | 168 | 0.0 | 4.8 | 0.00 | 0.00 | 0.00 | 64 | 1013.7 |
| 20260905031005 | 31 | 167 | 0.0 | 1.6 | 0.00 | 0.00 | 0.00 | 63 | 1013.7 |
| 20260905030506 | 31 | 167 | 0.0 | 4.8 | 0.00 | 0.00 | 0.00 | 62 | 1013.7 |
| 20260905030012 | 31 | 167 | 0.0 | 4.8 | 0.00 | 0.00 | 0.00 | 62 | 1013.6 |
| 20260905025507 | 31 | 167 | 0.0 | 0.0 | 0.00 | 0.00 | 0.00 | 62 | 1013.6 |
| 20260905025007 | 31 | 167 | 0.0 | 0.0 | 0.00 | 0.00 | 0.00 | 61 | 1013.5 |
| 20260905024515 | 31 | 167 | 0.0 | 1.6 | 0.00 | 0.00 | 0.00 | 61 | 1013.5 |
| 20260905024007 | 31 | 167 | 0.0 | 6.4 | 0.00 | 0.00 | 0.00 | 61 | 1013.5 |
| 20260905023506 | 32 | 167 | 0.0 | 6.4 | 0.00 | 0.00 | 0.00 | 60 | 1013.4 |
| 20260905023016 | 32 | 167 | 0.0 | 6.4 | 0.00 | 0.00 | 0.00 | 61 | 1013.3 |
| 20260905022506 | 32 | 164 | 0.0 | 6.4 | 0.00 | 0.00 | 0.00 | 60 | 1013.2 |
| 20260905022003 | 32 | 155 | 0.0 | 6.4 | 0.00 | 0.00 | 0.00 | 59 | 1013.2 |
| 20260905021510 | 32 | 156 | 0.0 | 8.0 | 0.00 | 0.00 | 0.00 | 59 | 1013.2 |
| 20260905021004 | 32 | 141 | 0.0 | 11.3 | 0.00 | 0.00 | 0.00 | 59 | 1013.1 |
| 20260905020502 | 32 | 167 | 0.0 | 11.3 | 0.00 | 0.00 | 0.00 | 59 | 1012.9 |
| 20260905020013 | 32 | 167 | 0.0 | 6.4 | 0.00 | 0.00 | 0.00 | 59 | 1012.9 |
| 20260905015504 | 32 | 163 | 0.0 | 8.0 | 0.00 | 0.00 | 0.00 | 59 | 1012.9 |
| 20260905015009 | 32 | 163 | 0.0 | 8.0 | 0.00 | 0.00 | 0.00 | 59 | 1012.8 |
| 20260905014515 | 32 | 166 | 0.0 | 9.7 | 0.00 | 0.00 | 0.00 | 59 | 1012.8 |
| 20260905014009 | 32 | 167 | 0.0 | 9.7 | 0.00 | 0.00 | 0.00 | 58 | 1012.7 |
| 20260905013512 | 33 | 168 | 0.0 | 11.3 | 0.00 | 0.00 | 0.00 | 58 | 1012.7 |
| 20260905013018 | 33 | 169 | 0.0 | 11.3 | 0.00 | 0.00 | 0.00 | 57 | 1012.5 |
| 20260905012508 | 33 | 157 | 1.6 | 11.3 | 0.00 | 0.00 | 0.00 | 57 | 1012.5 |
| 20260905012009 | 33 | 170 | 1.6 | 9.7 | 0.00 | 0.00 | 0.00 | 57 | 1012.5 |
| 20260905011517 | 33 | 175 | 0.0 | 9.7 | 0.00 | 0.00 | 0.00 | 56 | 1012.4 |
| 20260905011004 | 33 | 155 | 0.0 | 14.5 | 0.00 | 0.00 | 0.00 | 56 | 1012.3 |
| 20260905010503 | 33 | 155 | 1.6 | 16.1 | 0.00 | 0.00 | 0.00 | 55 | 1012.3 |
| 20260905010008 | 33 | 180 | 0.0 | 16.1 | 0.00 | 0.00 | 0.00 | 55 | 1012.3 |
| 20260905005503 | 33 | 174 | 1.6 | 12.9 | 0.00 | 0.00 | 0.00 | 56 | 1012.2 |
| 20260905005005 | 34 | 155 | 1.6 | 12.9 | 0.00 | 0.00 | 0.00 | 56 | 1012.2 |
| 20260905004515 | 34 | 163 | 0.0 | 14.5 | 0.00 | 0.00 | 0.00 | 56 | 1012.2 |
| 20260905004007 | 34 | 153 | 1.6 | 14.5 | 0.00 | 0.00 | 0.00 | 54 | 1012.1 |
| 20260905003509 | 34 | 160 | 3.2 | 14.5 | 0.00 | 0.00 | 0.00 | 54 | 1012.1 |
| 20260905003023 | 35 | 162 | 3.2 | 14.5 | 0.00 | 0.00 | 0.00 | 53 | 1012.1 |
| 20260905002508 | 35 | 144 | 4.8 | 14.5 | 0.00 | 0.00 | 0.00 | 53 | 1012.0 |
| 20260905002006 | 35 | 196 | 3.2 | 14.5 | 0.00 | 0.00 | 0.00 | 52 | 1011.9 |
| 20260905001518 | 35 | 146 | 3.2 | 14.5 | 0.00 | 0.00 | 0.00 | 50 | 1011.9 |
| 20260905001010 | 35 | 169 | 0.0 | 14.5 | 0.00 | 0.00 | 0.00 | 49 | 1011.8 |
| 20260905000508 | 36 | 150 | 1.6 | 14.5 | 0.00 | 0.00 | 0.00 | 48 | 1011.9 |
| 20260905000016 | 36 | 177 | 1.6 | 11.3 | 0.00 | 0.00 | 0.00 | 48 | 1011.8 |
| 20260904235503 | 36 | 189 | 0.0 | 14.5 | 0.00 | 0.00 | 0.00 | 47 | 1011.8 |
| 20260904235003 | 36 | 157 | 3.2 | 14.5 | 0.00 | 0.00 | 0.00 | 46 | 1011.8 |
| 20260904234509 | 36 | 172 | 0.0 | 14.5 | 0.00 | 0.00 | 0.00 | 46 | 1011.9 |
| 20260904234006 | 36 | 150 | 0.0 | 14.5 | 0.00 | 0.00 | 0.00 | 46 | 1011.8 |
| 20260904233503 | 36 | 151 | 3.2 | 14.5 | 0.00 | 0.00 | 0.00 | 46 | 1011.8 |
| 20260904233014 | 36 | 155 | 1.6 | 16.1 | 0.00 | 0.00 | 0.00 | 46 | 1011.7 |
| 20260904232508 | 36 | 166 | 1.6 | 16.1 | 0.00 | 0.00 | 0.00 | 46 | 1011.7 |
| 20260904232008 | 36 | 151 | 4.8 | 16.1 | 0.00 | 0.00 | 0.00 | 45 | 1011.7 |
| 20260904231520 | 36 | 150 | 4.8 | 16.1 | 0.00 | 0.00 | 0.00 | 46 | 1011.8 |
| 20260904231007 | 36 | 137 | 4.8 | 16.1 | 0.00 | 0.00 | 0.00 | 47 | 1011.8 |
| 20260904230510 | 36 | 136 | 1.6 | 12.9 | 0.00 | 0.00 | 0.00 | 47 | 1011.8 |
| 20260904230024 | 36 | 128 | 3.2 | 12.9 | 0.00 | 0.00 | 0.00 | 47 | 1011.8 |
| 20260904225508 | 36 | 165 | 3.2 | 14.5 | 0.00 | 0.00 | 0.00 | 47 | 1011.8 |
| 20260904225012 | 36 | 156 | 4.8 | 14.5 | 0.00 | 0.00 | 0.00 | 47 | 1011.9 |
| 20260904224524 | 36 | 156 | 1.6 | 11.3 | 0.00 | 0.00 | 0.00 | 46 | 1011.9 |
| 20260904224004 | 36 | 163 | 1.6 | 16.1 | 0.00 | 0.00 | 0.00 | 46 | 1011.9 |
| 20260904223504 | 36 | 164 | 4.8 | 16.1 | 0.00 | 0.00 | 0.00 | 47 | 1011.9 |
| 20260904223012 | 36 | 162 | 3.2 | 16.1 | 0.00 | 0.00 | 0.00 | 48 | 1012.0 |
| 20260904222506 | 36 | 133 | 4.8 | 16.1 | 0.00 | 0.00 | 0.00 | 48 | 1012.1 |
| 20260904222008 | 36 | 98 | 3.2 | 14.5 | 0.00 | 0.00 | 0.00 | 49 | 1012.0 |
| 20260904221534 | 36 | 138 | 3.2 | 14.5 | 0.00 | 0.00 | 0.00 | 49 | 1012.0 |
| 20260904221008 | 36 | 153 | 3.2 | 16.1 | 0.00 | 0.00 | 0.00 | 48 | 1012.0 |
| 20260904220511 | 36 | 150 | 4.8 | 16.1 | 0.00 | 0.00 | 0.00 | 48 | 1012.0 |
| 20260904220022 | 37 | 151 | 4.8 | 16.1 | 0.00 | 0.00 | 0.00 | 48 | 1012.1 |
| 20260904215511 | 37 | 187 | 6.4 | 16.1 | 0.00 | 0.00 | 0.00 | 47 | 1012.1 |
| 20260904215009 | 37 | 198 | 6.4 | 16.1 | 0.00 | 0.00 | 0.00 | 48 | 1012.2 |
| 20260904214525 | 37 | 142 | 4.8 | 16.1 | 0.00 | 0.00 | 0.00 | 47 | 1012.2 |
| 20260904214014 | 37 | 169 | 3.2 | 16.1 | 0.00 | 0.00 | 0.00 | 48 | 1012.2 |
| 20260904213510 | 37 | 183 | 1.6 | 17.7 | 0.00 | 0.00 | 0.00 | 49 | 1012.2 |
| 20260904213023 | 37 | 161 | 1.6 | 17.7 | 0.00 | 0.00 | 0.00 | 48 | 1012.2 |
| 20260904212505 | 37 | 109 | 3.2 | 16.1 | 0.00 | 0.00 | 0.00 | 48 | 1012.3 |
| 20260904212004 | 37 | 188 | 1.6 | 11.3 | 0.00 | 0.00 | 0.00 | 48 | 1012.3 |
| 20260904211512 | 37 | 155 | 3.2 | 14.5 | 0.00 | 0.00 | 0.00 | 48 | 1012.4 |
| 20260904211006 | 37 | 124 | 0.0 | 16.1 | 0.00 | 0.00 | 0.00 | 48 | 1012.4 |
| 20260904210508 | 37 | 173 | 3.2 | 17.7 | 0.00 | 0.00 | 0.00 | 48 | 1012.6 |
| 20260904210023 | 37 | 123 | 6.4 | 17.7 | 0.00 | 0.00 | 0.00 | 47 | 1012.5 |
| 20260904205510 | 37 | 199 | 0.0 | 20.9 | 0.00 | 0.00 | 0.00 | 47 | 1012.6 |
| 20260904205012 | 37 | 166 | 3.2 | 20.9 | 0.00 | 0.00 | 0.00 | 48 | 1012.7 |
| 20260904204528 | 37 | 158 | 4.8 | 14.5 | 0.00 | 0.00 | 0.00 | 48 | 1012.7 |
| 20260904204011 | 37 | 231 | 3.2 | 14.5 | 0.00 | 0.00 | 0.00 | 48 | 1012.7 |
| 20260904203510 | 37 | 141 | 4.8 | 17.7 | 0.00 | 0.00 | 0.00 | 48 | 1012.9 |
| 20260904203031 | 37 | 159 | 0.0 | 17.7 | 0.00 | 0.00 | 0.00 | 48 | 1013.0 |
| 20260904202503 | 37 | 193 | 0.0 | 17.7 | 0.00 | 0.00 | 0.00 | 48 | 1013.0 |
| 20260904202004 | 37 | 163 | 4.8 | 17.7 | 0.00 | 0.00 | 0.00 | 47 | 1013.1 |
| 20260904201520 | 37 | 258 | 3.2 | 17.7 | 0.00 | 0.00 | 0.00 | 48 | 1013.2 |
| 20260904201005 | 37 | 172 | 6.4 | 17.7 | 0.00 | 0.00 | 0.00 | 47 | 1013.3 |
| 20260904200507 | 37 | 151 | 9.7 | 17.7 | 0.00 | 0.00 | 0.00 | 47 | 1013.4 |
| 20260904200018 | 37 | 231 | 4.8 | 14.5 | 0.00 | 0.00 | 0.00 | 47 | 1013.4 |
| 20260904195507 | 37 | 140 | 1.6 | 14.5 | 0.00 | 0.00 | 0.00 | 47 | 1013.5 |
| 20260904195008 | 37 | 136 | 1.6 | 14.5 | 0.00 | 0.00 | 0.00 | 47 | 1013.5 |
| 20260904194552 | 37 | 144 | 1.6 | 14.5 | 0.00 | 0.00 | 0.00 | 48 | 1013.7 |
| 20260904194012 | 36 | 139 | 3.2 | 14.5 | 0.00 | 0.00 | 0.00 | 48 | 1013.7 |
| 20260904193512 | 36 | 141 | 1.6 | 16.1 | 0.00 | 0.00 | 0.00 | 49 | 1013.8 |
| 20260904193037 | 36 | 144 | 4.8 | 16.1 | 0.00 | 0.00 | 0.00 | 50 | 1013.8 |
| 20260904192502 | 36 | 153 | 6.4 | 16.1 | 0.00 | 0.00 | 0.00 | 50 | 1013.8 |
| 20260904192005 | 36 | 169 | 4.8 | 16.1 | 0.00 | 0.00 | 0.00 | 49 | 1013.9 |
| 20260904191507 | 36 | 284 | 1.6 | 14.5 | 0.00 | 0.00 | 0.00 | 50 | 1013.9 |
| 20260904191003 | 36 | 194 | 4.8 | 16.1 | 0.00 | 0.00 | 0.00 | 50 | 1013.9 |
| 20260904190503 | 36 | 203 | 4.8 | 19.3 | 0.00 | 0.00 | 0.00 | 51 | 1014.0 |
| 20260904190011 | 36 | 159 | 6.4 | 19.3 | 0.00 | 0.00 | 0.00 | 50 | 1014.0 |
| 20260904185506 | 36 | 155 | 4.8 | 19.3 | 0.00 | 0.00 | 0.00 | 49 | 1014.1 |
| 20260904185008 | 36 | 164 | 0.0 | 17.7 | 0.00 | 0.00 | 0.00 | 50 | 1014.2 |
| 20260904184521 | 36 | 202 | 0.0 | 17.7 | 0.00 | 0.00 | 0.00 | 52 | 1014.2 |
| 20260904184009 | 36 | 193 | 6.4 | 16.1 | 0.00 | 0.00 | 0.00 | 51 | 1014.2 |
| 20260904183510 | 36 | 168 | 1.6 | 14.5 | 0.00 | 0.00 | 0.00 | 53 | 1014.4 |
| 20260904183023 | 35 | 195 | 0.0 | 16.1 | 0.00 | 0.00 | 0.00 | 54 | 1014.5 |
| 20260904182513 | 35 | 147 | 4.8 | 16.1 | 0.00 | 0.00 | 0.00 | 53 | 1014.6 |
| 20260904182016 | 35 | 157 | 0.0 | 19.3 | 0.00 | 0.00 | 0.00 | 54 | 1014.7 |
| 20260904181527 | 35 | 184 | 0.0 | 19.3 | 0.00 | 0.00 | 0.00 | 54 | 1014.8 |
| 20260904181003 | 35 | 184 | 3.2 | 20.9 | 0.00 | 0.00 | 0.00 | 55 | 1014.9 |
| 20260904180503 | 35 | 128 | 8.0 | 20.9 | 0.00 | 0.00 | 0.00 | 55 | 1015.0 |
| 20260904180008 | 35 | 159 | 1.6 | 16.1 | 0.00 | 0.00 | 0.00 | 55 | 1015.1 |
| 20260904175503 | 35 | 123 | 4.8 | 16.1 | 0.00 | 0.00 | 0.00 | 55 | 1015.1 |
| 20260904175003 | 35 | 138 | 3.2 | 14.5 | 0.00 | 0.00 | 0.00 | 55 | 1015.1 |
| 20260904174516 | 35 | 152 | 4.8 | 14.5 | 0.00 | 0.00 | 0.00 | 55 | 1015.2 |
| 20260904174007 | 35 | 161 | 4.8 | 16.1 | 0.00 | 0.00 | 0.00 | 55 | 1015.2 |
| 20260904173509 | 35 | 112 | 6.4 | 17.7 | 0.00 | 0.00 | 0.00 | 55 | 1015.3 |
| 20260904173027 | 35 | 150 | 4.8 | 17.7 | 0.00 | 0.00 | 0.00 | 56 | 1015.4 |
| 20260904172511 | 34 | 178 | 3.2 | 14.5 | 0.00 | 0.00 | 0.00 | 59 | 1015.5 |
| 20260904172012 | 34 | 153 | 3.2 | 14.5 | 0.00 | 0.00 | 0.00 | 60 | 1015.5 |
| 20260904171538 | 33 | 143 | 4.8 | 16.1 | 0.00 | 0.00 | 0.00 | 60 | 1015.6 |
| 20260904171011 | 33 | 189 | 4.8 | 19.3 | 0.00 | 0.00 | 0.00 | 60 | 1015.6 |
| 20260904170513 | 33 | 146 | 9.7 | 19.3 | 0.00 | 0.00 | 0.00 | 62 | 1015.6 |
| 20260904170031 | 33 | 161 | 3.2 | 17.7 | 0.00 | 0.00 | 0.00 | 62 | 1015.6 |
| 20260904165505 | 33 | 145 | 9.7 | 17.7 | 0.00 | 0.00 | 0.00 | 63 | 1015.6 |
| 20260904165004 | 33 | 138 | 4.8 | 16.1 | 0.00 | 0.00 | 0.00 | 64 | 1015.6 |
| 20260904164510 | 33 | 140 | 6.4 | 17.7 | 0.00 | 0.00 | 0.00 | 64 | 1015.7 |
| 20260904164003 | 33 | 165 | 6.4 | 17.7 | 0.00 | 0.00 | 0.00 | 65 | 1015.7 |
| 20260904163504 | 33 | 155 | 6.4 | 17.7 | 0.00 | 0.00 | 0.00 | 65 | 1015.8 |
| 20260904163015 | 33 | 164 | 6.4 | 16.1 | 0.00 | 0.00 | 0.00 | 64 | 1015.8 |
| 20260904162506 | 33 | 206 | 3.2 | 19.3 | 0.00 | 0.00 | 0.00 | 64 | 1015.8 |
| 20260904162012 | 33 | 143 | 8.0 | 19.3 | 0.00 | 0.00 | 0.00 | 64 | 1015.7 |
| 20260904161527 | 33 | 126 | 0.0 | 12.9 | 0.00 | 0.00 | 0.00 | 66 | 1015.7 |
| 20260904161011 | 32 | 194 | 0.0 | 16.1 | 0.00 | 0.00 | 0.00 | 67 | 1015.8 |
| 20260904160510 | 32 | 186 | 0.0 | 16.1 | 0.00 | 0.00 | 0.00 | 67 | 1015.8 |
| 20260904160030 | 32 | 192 | 1.6 | 14.5 | 0.00 | 0.00 | 0.00 | 69 | 1015.8 |
| 20260904155512 | 32 | 209 | 1.6 | 14.5 | 0.00 | 0.00 | 0.00 | 69 | 1015.9 |
| 20260904155014 | 32 | 182 | 3.2 | 19.3 | 0.00 | 0.00 | 0.00 | 71 | 1015.8 |
| 20260904154530 | 32 | 138 | 1.6 | 19.3 | 0.00 | 0.00 | 0.00 | 71 | 1015.8 |
| 20260904154003 | 32 | 184 | 1.6 | 12.9 | 0.00 | 0.00 | 0.00 | 70 | 1015.8 |
| 20260904153503 | 32 | 178 | 1.6 | 8.0 | 0.00 | 0.00 | 0.00 | 70 | 1015.8 |
| 20260904153021 | 32 | 198 | 0.0 | 14.5 | 0.00 | 0.00 | 0.00 | 69 | 1015.6 |
| 20260904152503 | 32 | 153 | 4.8 | 14.5 | 0.00 | 0.00 | 0.00 | 69 | 1015.6 |
| 20260904152008 | 32 | 196 | 1.6 | 12.9 | 0.00 | 0.00 | 0.00 | 70 | 1015.6 |
| 20260904151533 | 31 | 205 | 1.6 | 12.9 | 0.00 | 0.00 | 0.00 | 70 | 1015.5 |
| 20260904151010 | 31 | 187 | 0.0 | 12.9 | 0.00 | 0.00 | 0.00 | 72 | 1015.5 |
| 20260904150512 | 31 | 171 | 0.0 | 9.7 | 0.00 | 0.00 | 0.00 | 73 | 1015.5 |
| 20260904150028 | 31 | 165 | 1.6 | 16.1 | 0.00 | 0.00 | 0.00 | 74 | 1015.5 |
| 20260904145513 | 31 | 127 | 0.0 | 16.1 | 0.00 | 0.00 | 0.00 | 76 | 1015.5 |
| 20260904145012 | 30 | 158 | 3.2 | 16.1 | 0.00 | 0.00 | 0.00 | 76 | 1015.5 |
| 20260904144526 | 30 | 150 | 1.6 | 12.9 | 0.00 | 0.00 | 0.00 | 77 | 1015.5 |
| 20260904144014 | 30 | 181 | 1.6 | 12.9 | 0.00 | 0.00 | 0.00 | 77 | 1015.5 |
| 20260904143515 | 30 | 207 | 3.2 | 8.0 | 0.00 | 0.00 | 0.00 | 78 | 1015.5 |
| 20260904143033 | 30 | 196 | 0.0 | 8.0 | 0.00 | 0.00 | 0.00 | 79 | 1015.6 |
| 20260904142503 | 30 | 238 | 0.0 | 12.9 | 0.00 | 0.00 | 0.00 | 80 | 1015.6 |
| 20260904142005 | 29 | 185 | 1.6 | 12.9 | 0.00 | 0.00 | 0.00 | 80 | 1015.5 |
| 20260904141515 | 29 | 190 | 1.6 | 11.3 | 0.00 | 0.00 | 0.00 | 81 | 1015.5 |
| 20260904141010 | 28 | 204 | 0.0 | 16.1 | 0.00 | 0.00 | 0.00 | 83 | 1015.5 |
| 20260904140509 | 28 | 157 | 1.6 | 16.1 | 0.00 | 0.00 | 0.00 | 84 | 1015.5 |
| 20260904140023 | 28 | 152 | 1.6 | 16.1 | 0.00 | 0.00 | 0.00 | 84 | 1015.5 |
| 20260904135515 | 28 | 184 | 3.2 | 16.1 | 0.00 | 0.00 | 0.00 | 85 | 1015.5 |
| 20260904135011 | 27 | 191 | 3.2 | 14.5 | 0.00 | 0.00 | 0.00 | 86 | 1015.4 |
| 20260904134526 | 27 | 160 | 4.8 | 14.5 | 0.00 | 0.00 | 0.00 | 87 | 1015.3 |
| 20260904134011 | 27 | 194 | 4.8 | 14.5 | 0.00 | 0.00 | 0.00 | 88 | 1015.3 |
| 20260904133515 | 26 | 173 | 1.6 | 14.5 | 0.00 | 0.00 | 0.00 | 89 | 1015.3 |
| 20260904133030 | 26 | 194 | 1.6 | 14.5 | 0.00 | 0.00 | 0.00 | 90 | 1015.3 |
| 20260904132516 | 26 | 167 | 3.2 | 14.5 | 0.00 | 0.00 | 0.00 | 90 | 1015.2 |
| 20260904132014 | 26 | 169 | 4.8 | 14.5 | 0.00 | 0.00 | 0.00 | 90 | 1015.2 |
| 20260904131531 | 26 | 189 | 4.8 | 12.9 | 0.00 | 0.00 | 0.00 | 91 | 1015.1 |
| 20260904131004 | 26 | 203 | 3.2 | 12.9 | 0.00 | 0.00 | 0.00 | 91 | 1015.1 |
| 20260904130506 | 26 | 147 | 1.6 | 12.9 | 0.00 | 0.00 | 0.00 | 91 | 1015.1 |
| 20260904130016 | 26 | 166 | 1.6 | 14.5 | 0.00 | 0.00 | 0.00 | 91 | 1015.0 |
| 20260904125508 | 25 | 188 | 1.6 | 14.5 | 0.00 | 0.00 | 0.00 | 91 | 1015.0 |
| 20260904125010 | 25 | 165 | 3.2 | 16.1 | 0.00 | 0.00 | 0.00 | 91 | 1014.9 |
| 20260904124524 | 25 | 157 | 0.0 | 16.1 | 0.00 | 0.00 | 0.00 | 91 | 1015.0 |
| 20260904124010 | 25 | 168 | 1.6 | 14.5 | 0.00 | 0.00 | 0.00 | 92 | 1015.0 |
| 20260904123515 | 25 | 147 | 3.2 | 11.3 | 0.00 | 0.00 | 0.00 | 92 | 1014.9 |
| 20260904123027 | 25 | 182 | 0.0 | 11.3 | 0.00 | 0.00 | 0.00 | 92 | 1014.9 |
| 20260904122518 | 25 | 152 | 0.0 | 11.3 | 0.00 | 0.00 | 0.00 | 92 | 1014.9 |
| 20260904122015 | 25 | 182 | 0.0 | 11.3 | 0.00 | 0.03 | 0.00 | 92 | 1014.9 |
| 20260904121535 | 25 | 192 | 3.2 | 16.1 | 0.00 | 0.03 | 0.00 | 92 | 1014.9 |
| 20260904121016 | 25 | 186 | 1.6 | 16.1 | 0.00 | 0.03 | 0.00 | 92 | 1014.9 |
| 20260904120518 | 25 | 189 | 0.0 | 6.4 | 0.00 | 0.05 | 0.00 | 92 | 1014.9 |
| 20260904120037 | 25 | 188 | 0.0 | 9.7 | 0.00 | 0.08 | 0.00 | 92 | 1014.8 |
| 20260904115507 | 25 | 169 | 0.0 | 9.7 | 0.00 | 0.10 | 0.00 | 92 | 1014.8 |
| 20260904115006 | 25 | 172 | 1.6 | 9.7 | 0.00 | 0.10 | 0.00 | 92 | 1014.7 |
| 20260904114520 | 25 | 167 | 0.0 | 9.7 | 0.00 | 0.10 | 0.00 | 91 | 1014.6 |
| 20260904114013 | 25 | 180 | 0.0 | 9.7 | 0.00 | 0.10 | 0.00 | 91 | 1014.5 |
| 20260904113512 | 25 | 188 | 1.6 | 16.1 | 0.00 | 0.10 | 0.00 | 91 | 1014.6 |
| 20260904113033 | 25 | 205 | 3.2 | 16.1 | 0.00 | 0.10 | 0.00 | 91 | 1014.5 |
| 20260904112517 | 25 | 182 | 0.0 | 12.9 | 0.00 | 0.10 | 0.00 | 91 | 1014.5 |
| 20260904112013 | 25 | 173 | 0.0 | 9.7 | 0.00 | 0.10 | 0.00 | 91 | 1014.4 |
| 20260904111529 | 25 | 159 | 0.0 | 9.7 | 0.00 | 0.10 | 0.00 | 91 | 1014.4 |
| 20260904111022 | 25 | 173 | 0.0 | 9.7 | 0.00 | 0.10 | 0.00 | 90 | 1014.3 |
| 20260904110516 | 25 | 186 | 0.0 | 11.3 | 0.00 | 0.10 | 0.00 | 90 | 1014.3 |
| 20260904110031 | 25 | 169 | 1.6 | 11.3 | 0.00 | 0.10 | 0.00 | 90 | 1014.3 |
| 20260904105517 | 25 | 184 | 0.0 | 11.3 | 0.00 | 0.10 | 0.00 | 90 | 1014.3 |
| 20260904105014 | 25 | 180 | 3.2 | 11.3 | 0.00 | 0.10 | 0.00 | 90 | 1014.3 |
| 20260904104531 | 25 | 157 | 3.2 | 9.7 | 0.00 | 0.10 | 0.00 | 89 | 1014.2 |